sensor_id;sensor_type;location;lat;lon;timestamp;P1;durP1;ratioP1;P2;durP2;ratioP2
13607;SDS011;6875;50.852;5.672;2023-06-22T00:00:11;7.83;;;6.53;;
13607;SDS011;6875;50.852;5.672;2023-06-22T00:02:38;9.07;;;6.27;;
13607;SDS011;6875;50.852;5.672;2023-06-22T00:05:05;9.27;;;6.43;;
13607;SDS011;6875;50.852;5.672;2023-06-22T00:07:32;12.00;;;8.20;;
13607;SDS011;6875;50.852;5.672;2023-06-22T00:09:58;8.00;;;6.70;;
13607;SDS011;6875;50.852;5.672;2023-06-22T00:12:25;8.27;;;6.93;;
13607;SDS011;6875;50.852;5.672;2023-06-22T00:14:52;10.70;;;6.93;;
13607;SDS011;6875;50.852;5.672;2023-06-22T00:17:20;9.03;;;7.27;;
13607;SDS011;6875;50.852;5.672;2023-06-22T00:19:46;8.20;;;7.30;;
13607;SDS011;6875;50.852;5.672;2023-06-22T00:22:18;11.07;;;7.10;;
13607;SDS011;6875;50.852;5.672;2023-06-22T00:24:46;11.27;;;7.67;;
13607;SDS011;6875;50.852;5.672;2023-06-22T00:27:14;8.70;;;7.80;;
13607;SDS011;6875;50.852;5.672;2023-06-22T00:29:41;9.43;;;7.80;;
13607;SDS011;6875;50.852;5.672;2023-06-22T00:32:07;9.57;;;8.23;;
13607;SDS011;6875;50.852;5.672;2023-06-22T00:34:35;11.20;;;7.90;;
13607;SDS011;6875;50.852;5.672;2023-06-22T00:37:02;10.67;;;7.57;;
13607;SDS011;6875;50.852;5.672;2023-06-22T00:39:29;10.93;;;8.00;;
13607;SDS011;6875;50.852;5.672;2023-06-22T00:41:59;11.10;;;8.27;;
13607;SDS011;6875;50.852;5.672;2023-06-22T00:44:25;9.10;;;8.00;;
13607;SDS011;6875;50.852;5.672;2023-06-22T00:46:52;10.80;;;8.73;;
13607;SDS011;6875;50.852;5.672;2023-06-22T00:49:19;9.53;;;8.53;;
13607;SDS011;6875;50.852;5.672;2023-06-22T00:51:47;11.07;;;8.33;;
13607;SDS011;6875;50.852;5.672;2023-06-22T00:54:15;9.67;;;8.57;;
13607;SDS011;6875;50.852;5.672;2023-06-22T00:56:43;11.20;;;8.20;;
13607;SDS011;6875;50.852;5.672;2023-06-22T00:59:10;10.63;;;8.63;;
13607;SDS011;6875;50.852;5.672;2023-06-22T01:01:38;11.40;;;9.57;;
13607;SDS011;6875;50.852;5.672;2023-06-22T01:04:06;10.63;;;9.00;;
13607;SDS011;6875;50.852;5.672;2023-06-22T01:06:34;9.43;;;8.43;;
13607;SDS011;6875;50.852;5.672;2023-06-22T01:09:07;11.73;;;9.03;;
13607;SDS011;6875;50.852;5.672;2023-06-22T01:11:41;11.27;;;9.13;;
13607;SDS011;6875;50.852;5.672;2023-06-22T01:14:11;10.73;;;9.30;;
13607;SDS011;6875;50.852;5.672;2023-06-22T01:16:42;10.70;;;9.07;;
13607;SDS011;6875;50.852;5.672;2023-06-22T01:19:16;10.17;;;9.10;;
13607;SDS011;6875;50.852;5.672;2023-06-22T01:21:52;10.93;;;8.73;;
13607;SDS011;6875;50.852;5.672;2023-06-22T01:24:22;11.43;;;9.40;;
13607;SDS011;6875;50.852;5.672;2023-06-22T01:26:54;10.73;;;9.30;;
13607;SDS011;6875;50.852;5.672;2023-06-22T01:29:27;10.70;;;8.57;;
13607;SDS011;6875;50.852;5.672;2023-06-22T01:31:55;10.23;;;9.23;;
13607;SDS011;6875;50.852;5.672;2023-06-22T01:34:23;10.93;;;9.83;;
13607;SDS011;6875;50.852;5.672;2023-06-22T01:36:50;12.03;;;9.67;;
13607;SDS011;6875;50.852;5.672;2023-06-22T01:39:17;11.73;;;10.50;;
13607;SDS011;6875;50.852;5.672;2023-06-22T01:41:44;11.53;;;10.33;;
13607;SDS011;6875;50.852;5.672;2023-06-22T01:44:11;11.90;;;10.07;;
13607;SDS011;6875;50.852;5.672;2023-06-22T01:46:43;11.53;;;9.97;;
13607;SDS011;6875;50.852;5.672;2023-06-22T01:49:10;10.37;;;9.20;;
13607;SDS011;6875;50.852;5.672;2023-06-22T01:51:37;13.33;;;10.50;;
13607;SDS011;6875;50.852;5.672;2023-06-22T01:54:05;12.30;;;10.00;;
13607;SDS011;6875;50.852;5.672;2023-06-22T01:56:32;13.20;;;10.40;;
13607;SDS011;6875;50.852;5.672;2023-06-22T01:59:01;12.20;;;10.83;;
13607;SDS011;6875;50.852;5.672;2023-06-22T02:01:31;11.93;;;9.83;;
13607;SDS011;6875;50.852;5.672;2023-06-22T02:04:09;13.77;;;10.57;;
13607;SDS011;6875;50.852;5.672;2023-06-22T02:06:41;14.13;;;11.77;;
13607;SDS011;6875;50.852;5.672;2023-06-22T02:09:09;13.40;;;10.93;;
13607;SDS011;6875;50.852;5.672;2023-06-22T02:11:39;12.90;;;11.03;;
13607;SDS011;6875;50.852;5.672;2023-06-22T02:14:07;11.90;;;10.70;;
13607;SDS011;6875;50.852;5.672;2023-06-22T02:16:34;13.77;;;10.90;;
13607;SDS011;6875;50.852;5.672;2023-06-22T02:19:02;14.47;;;11.50;;
13607;SDS011;6875;50.852;5.672;2023-06-22T02:21:32;13.87;;;11.80;;
13607;SDS011;6875;50.852;5.672;2023-06-22T02:23:59;13.60;;;12.20;;
13607;SDS011;6875;50.852;5.672;2023-06-22T02:26:26;15.10;;;11.80;;
13607;SDS011;6875;50.852;5.672;2023-06-22T02:28:53;13.37;;;11.87;;
13607;SDS011;6875;50.852;5.672;2023-06-22T02:31:19;12.80;;;11.50;;
13607;SDS011;6875;50.852;5.672;2023-06-22T02:33:46;13.37;;;10.83;;
13607;SDS011;6875;50.852;5.672;2023-06-22T02:36:13;11.77;;;10.57;;
13607;SDS011;6875;50.852;5.672;2023-06-22T02:38:42;14.97;;;11.93;;
13607;SDS011;6875;50.852;5.672;2023-06-22T02:41:13;14.07;;;11.60;;
13607;SDS011;6875;50.852;5.672;2023-06-22T02:43:43;13.23;;;11.27;;
13607;SDS011;6875;50.852;5.672;2023-06-22T02:46:11;16.30;;;11.57;;
13607;SDS011;6875;50.852;5.672;2023-06-22T02:48:38;13.33;;;10.67;;
13607;SDS011;6875;50.852;5.672;2023-06-22T02:51:05;15.83;;;11.10;;
13607;SDS011;6875;50.852;5.672;2023-06-22T02:53:32;12.67;;;10.83;;
13607;SDS011;6875;50.852;5.672;2023-06-22T02:56:01;14.37;;;11.03;;
13607;SDS011;6875;50.852;5.672;2023-06-22T02:58:30;12.70;;;11.40;;
13607;SDS011;6875;50.852;5.672;2023-06-22T03:01:03;13.30;;;11.90;;
13607;SDS011;6875;50.852;5.672;2023-06-22T03:03:31;11.57;;;10.47;;
13607;SDS011;6875;50.852;5.672;2023-06-22T03:05:58;12.90;;;10.90;;
13607;SDS011;6875;50.852;5.672;2023-06-22T03:08:27;15.80;;;11.87;;
13607;SDS011;6875;50.852;5.672;2023-06-22T03:10:54;14.03;;;11.23;;
13607;SDS011;6875;50.852;5.672;2023-06-22T03:13:22;12.20;;;10.90;;
13607;SDS011;6875;50.852;5.672;2023-06-22T03:15:49;14.93;;;12.03;;
13607;SDS011;6875;50.852;5.672;2023-06-22T03:18:16;12.87;;;10.80;;
13607;SDS011;6875;50.852;5.672;2023-06-22T03:20:43;15.53;;;11.20;;
13607;SDS011;6875;50.852;5.672;2023-06-22T03:23:10;14.00;;;11.33;;
13607;SDS011;6875;50.852;5.672;2023-06-22T03:25:36;13.47;;;10.37;;
13607;SDS011;6875;50.852;5.672;2023-06-22T03:28:03;13.67;;;10.47;;
13607;SDS011;6875;50.852;5.672;2023-06-22T03:30:32;15.23;;;10.93;;
13607;SDS011;6875;50.852;5.672;2023-06-22T03:32:58;11.63;;;9.83;;
13607;SDS011;6875;50.852;5.672;2023-06-22T03:35:25;12.70;;;10.27;;
13607;SDS011;6875;50.852;5.672;2023-06-22T03:37:52;13.23;;;10.37;;
13607;SDS011;6875;50.852;5.672;2023-06-22T03:40:19;11.57;;;10.13;;
13607;SDS011;6875;50.852;5.672;2023-06-22T03:42:46;12.63;;;10.33;;
13607;SDS011;6875;50.852;5.672;2023-06-22T03:45:13;12.50;;;10.57;;
13607;SDS011;6875;50.852;5.672;2023-06-22T03:47:42;16.03;;;11.53;;
13607;SDS011;6875;50.852;5.672;2023-06-22T03:50:09;13.53;;;10.13;;
13607;SDS011;6875;50.852;5.672;2023-06-22T03:52:36;11.70;;;10.23;;
13607;SDS011;6875;50.852;5.672;2023-06-22T03:55:03;11.90;;;10.17;;
13607;SDS011;6875;50.852;5.672;2023-06-22T03:57:31;10.67;;;9.57;;
13607;SDS011;6875;50.852;5.672;2023-06-22T03:59:58;13.60;;;10.80;;
13607;SDS011;6875;50.852;5.672;2023-06-22T04:02:25;11.80;;;10.00;;
13607;SDS011;6875;50.852;5.672;2023-06-22T04:04:53;12.40;;;9.20;;
13607;SDS011;6875;50.852;5.672;2023-06-22T04:07:20;14.90;;;10.17;;
13607;SDS011;6875;50.852;5.672;2023-06-22T04:09:46;11.17;;;9.07;;
13607;SDS011;6875;50.852;5.672;2023-06-22T04:12:13;10.63;;;9.13;;
13607;SDS011;6875;50.852;5.672;2023-06-22T04:14:40;9.73;;;8.73;;
13607;SDS011;6875;50.852;5.672;2023-06-22T04:17:07;10.90;;;9.33;;
13607;SDS011;6875;50.852;5.672;2023-06-22T04:19:34;13.03;;;8.93;;
13607;SDS011;6875;50.852;5.672;2023-06-22T04:22:02;10.33;;;9.23;;
13607;SDS011;6875;50.852;5.672;2023-06-22T04:24:32;12.97;;;9.30;;
13607;SDS011;6875;50.852;5.672;2023-06-22T04:26:59;12.63;;;9.73;;
13607;SDS011;6875;50.852;5.672;2023-06-22T04:29:29;12.03;;;9.30;;
13607;SDS011;6875;50.852;5.672;2023-06-22T04:31:56;10.83;;;9.17;;
13607;SDS011;6875;50.852;5.672;2023-06-22T04:34:28;12.83;;;9.50;;
13607;SDS011;6875;50.852;5.672;2023-06-22T04:36:55;11.27;;;8.70;;
13607;SDS011;6875;50.852;5.672;2023-06-22T04:39:23;11.67;;;9.63;;
13607;SDS011;6875;50.852;5.672;2023-06-22T04:41:52;11.83;;;8.83;;
13607;SDS011;6875;50.852;5.672;2023-06-22T04:44:25;11.30;;;8.33;;
13607;SDS011;6875;50.852;5.672;2023-06-22T04:46:52;9.73;;;7.77;;
13607;SDS011;6875;50.852;5.672;2023-06-22T04:49:25;11.03;;;9.17;;
13607;SDS011;6875;50.852;5.672;2023-06-22T04:51:58;11.97;;;8.70;;
13607;SDS011;6875;50.852;5.672;2023-06-22T04:54:26;9.43;;;8.10;;
13607;SDS011;6875;50.852;5.672;2023-06-22T04:56:54;9.80;;;7.57;;
13607;SDS011;6875;50.852;5.672;2023-06-22T04:59:22;10.87;;;8.00;;
13607;SDS011;6875;50.852;5.672;2023-06-22T05:01:53;11.53;;;8.40;;
13607;SDS011;6875;50.852;5.672;2023-06-22T05:04:21;9.70;;;7.13;;
13607;SDS011;6875;50.852;5.672;2023-06-22T05:06:48;8.40;;;7.50;;
13607;SDS011;6875;50.852;5.672;2023-06-22T05:09:15;9.20;;;8.07;;
13607;SDS011;6875;50.852;5.672;2023-06-22T05:11:43;14.73;;;8.40;;
13607;SDS011;6875;50.852;5.672;2023-06-22T05:14:10;10.40;;;8.53;;
13607;SDS011;6875;50.852;5.672;2023-06-22T05:16:37;10.73;;;8.60;;
13607;SDS011;6875;50.852;5.672;2023-06-22T05:19:04;10.37;;;8.60;;
13607;SDS011;6875;50.852;5.672;2023-06-22T05:21:31;10.90;;;8.37;;
13607;SDS011;6875;50.852;5.672;2023-06-22T05:23:58;11.10;;;8.93;;
13607;SDS011;6875;50.852;5.672;2023-06-22T05:26:27;11.10;;;8.97;;
13607;SDS011;6875;50.852;5.672;2023-06-22T05:28:56;10.07;;;8.97;;
13607;SDS011;6875;50.852;5.672;2023-06-22T05:31:23;10.57;;;8.80;;
13607;SDS011;6875;50.852;5.672;2023-06-22T05:33:51;10.93;;;9.63;;
13607;SDS011;6875;50.852;5.672;2023-06-22T05:36:19;11.07;;;8.97;;
13607;SDS011;6875;50.852;5.672;2023-06-22T05:38:46;11.07;;;9.40;;
13607;SDS011;6875;50.852;5.672;2023-06-22T05:41:13;11.13;;;9.93;;
13607;SDS011;6875;50.852;5.672;2023-06-22T05:43:40;12.63;;;9.17;;
13607;SDS011;6875;50.852;5.672;2023-06-22T05:46:09;13.00;;;10.43;;
13607;SDS011;6875;50.852;5.672;2023-06-22T05:48:35;12.07;;;10.60;;
13607;SDS011;6875;50.852;5.672;2023-06-22T05:51:03;12.87;;;11.30;;
13607;SDS011;6875;50.852;5.672;2023-06-22T05:53:30;19.30;;;11.77;;
13607;SDS011;6875;50.852;5.672;2023-06-22T05:55:57;13.53;;;11.43;;
13607;SDS011;6875;50.852;5.672;2023-06-22T05:58:23;13.40;;;11.73;;
13607;SDS011;6875;50.852;5.672;2023-06-22T06:00:51;14.03;;;12.50;;
13607;SDS011;6875;50.852;5.672;2023-06-22T06:03:19;14.50;;;12.77;;
13607;SDS011;6875;50.852;5.672;2023-06-22T06:05:49;16.40;;;13.23;;
13607;SDS011;6875;50.852;5.672;2023-06-22T06:08:36;19.63;;;13.40;;
13607;SDS011;6875;50.852;5.672;2023-06-22T06:11:02;18.23;;;14.77;;
13607;SDS011;6875;50.852;5.672;2023-06-22T06:13:29;15.20;;;13.60;;
13607;SDS011;6875;50.852;5.672;2023-06-22T06:15:56;18.47;;;14.93;;
13607;SDS011;6875;50.852;5.672;2023-06-22T06:18:24;17.40;;;14.67;;
13607;SDS011;6875;50.852;5.672;2023-06-22T06:20:51;17.87;;;14.97;;
13607;SDS011;6875;50.852;5.672;2023-06-22T06:23:20;18.33;;;14.73;;
13607;SDS011;6875;50.852;5.672;2023-06-22T06:25:47;18.47;;;15.77;;
13607;SDS011;6875;50.852;5.672;2023-06-22T06:28:14;17.13;;;15.33;;
13607;SDS011;6875;50.852;5.672;2023-06-22T06:30:43;17.50;;;15.63;;
13607;SDS011;6875;50.852;5.672;2023-06-22T06:33:12;17.47;;;15.57;;
13607;SDS011;6875;50.852;5.672;2023-06-22T06:35:40;17.80;;;15.90;;
13607;SDS011;6875;50.852;5.672;2023-06-22T06:38:07;18.17;;;16.27;;
13607;SDS011;6875;50.852;5.672;2023-06-22T06:40:34;18.70;;;15.10;;
13607;SDS011;6875;50.852;5.672;2023-06-22T06:43:06;18.67;;;16.57;;
13607;SDS011;6875;50.852;5.672;2023-06-22T06:45:33;18.57;;;16.57;;
13607;SDS011;6875;50.852;5.672;2023-06-22T06:47:59;20.03;;;16.07;;
13607;SDS011;6875;50.852;5.672;2023-06-22T06:50:27;18.23;;;16.33;;
13607;SDS011;6875;50.852;5.672;2023-06-22T06:52:55;21.43;;;16.93;;
13607;SDS011;6875;50.852;5.672;2023-06-22T06:55:24;18.80;;;16.23;;
13607;SDS011;6875;50.852;5.672;2023-06-22T06:57:51;20.20;;;17.27;;
13607;SDS011;6875;50.852;5.672;2023-06-22T07:00:18;20.80;;;16.70;;
13607;SDS011;6875;50.852;5.672;2023-06-22T07:02:45;19.97;;;17.30;;
13607;SDS011;6875;50.852;5.672;2023-06-22T07:05:13;19.47;;;17.17;;
13607;SDS011;6875;50.852;5.672;2023-06-22T07:07:40;21.83;;;17.70;;
13607;SDS011;6875;50.852;5.672;2023-06-22T07:10:09;19.00;;;16.83;;
13607;SDS011;6875;50.852;5.672;2023-06-22T07:12:36;20.47;;;16.63;;
13607;SDS011;6875;50.852;5.672;2023-06-22T07:15:03;22.60;;;16.47;;
13607;SDS011;6875;50.852;5.672;2023-06-22T07:17:33;19.53;;;17.43;;
13607;SDS011;6875;50.852;5.672;2023-06-22T07:20:00;18.77;;;16.70;;
13607;SDS011;6875;50.852;5.672;2023-06-22T07:22:27;19.07;;;17.07;;
13607;SDS011;6875;50.852;5.672;2023-06-22T07:24:54;18.40;;;16.40;;
13607;SDS011;6875;50.852;5.672;2023-06-22T07:27:23;21.60;;;16.90;;
13607;SDS011;6875;50.852;5.672;2023-06-22T07:29:52;21.03;;;16.53;;
13607;SDS011;6875;50.852;5.672;2023-06-22T07:32:20;20.20;;;18.07;;
13607;SDS011;6875;50.852;5.672;2023-06-22T07:34:47;19.13;;;16.83;;
13607;SDS011;6875;50.852;5.672;2023-06-22T07:37:14;19.57;;;17.27;;
13607;SDS011;6875;50.852;5.672;2023-06-22T07:39:41;22.83;;;17.67;;
13607;SDS011;6875;50.852;5.672;2023-06-22T07:42:07;21.80;;;16.33;;
13607;SDS011;6875;50.852;5.672;2023-06-22T07:44:35;22.53;;;17.10;;
13607;SDS011;6875;50.852;5.672;2023-06-22T07:47:02;18.37;;;16.37;;
13607;SDS011;6875;50.852;5.672;2023-06-22T07:49:30;18.57;;;16.47;;
13607;SDS011;6875;50.852;5.672;2023-06-22T07:51:57;18.03;;;16.10;;
13607;SDS011;6875;50.852;5.672;2023-06-22T07:54:23;20.90;;;17.67;;
13607;SDS011;6875;50.852;5.672;2023-06-22T07:56:50;20.87;;;16.90;;
13607;SDS011;6875;50.852;5.672;2023-06-22T07:59:18;19.67;;;16.97;;
13607;SDS011;6875;50.852;5.672;2023-06-22T08:01:46;19.77;;;17.50;;
13607;SDS011;6875;50.852;5.672;2023-06-22T08:04:14;19.87;;;17.37;;
13607;SDS011;6875;50.852;5.672;2023-06-22T08:06:41;21.50;;;17.33;;
13607;SDS011;6875;50.852;5.672;2023-06-22T08:09:08;18.83;;;16.93;;
13607;SDS011;6875;50.852;5.672;2023-06-22T08:11:35;17.47;;;15.60;;
13607;SDS011;6875;50.852;5.672;2023-06-22T08:14:02;18.87;;;16.43;;
13607;SDS011;6875;50.852;5.672;2023-06-22T08:16:29;18.40;;;15.33;;
13607;SDS011;6875;50.852;5.672;2023-06-22T08:18:57;17.63;;;15.83;;
13607;SDS011;6875;50.852;5.672;2023-06-22T08:21:24;17.93;;;16.00;;
13607;SDS011;6875;50.852;5.672;2023-06-22T08:23:50;20.17;;;17.13;;
13607;SDS011;6875;50.852;5.672;2023-06-22T08:26:17;20.63;;;16.47;;
13607;SDS011;6875;50.852;5.672;2023-06-22T08:28:43;18.37;;;15.37;;
13607;SDS011;6875;50.852;5.672;2023-06-22T08:31:10;20.37;;;16.03;;
13607;SDS011;6875;50.852;5.672;2023-06-22T08:33:39;18.50;;;15.47;;
13607;SDS011;6875;50.852;5.672;2023-06-22T08:36:07;19.70;;;15.73;;
13607;SDS011;6875;50.852;5.672;2023-06-22T08:38:36;18.27;;;15.23;;
13607;SDS011;6875;50.852;5.672;2023-06-22T08:41:02;15.60;;;13.77;;
13607;SDS011;6875;50.852;5.672;2023-06-22T08:43:29;17.20;;;13.90;;
13607;SDS011;6875;50.852;5.672;2023-06-22T08:45:56;15.40;;;12.97;;
13607;SDS011;6875;50.852;5.672;2023-06-22T08:48:22;18.13;;;12.73;;
13607;SDS011;6875;50.852;5.672;2023-06-22T08:50:49;15.67;;;13.33;;
13607;SDS011;6875;50.852;5.672;2023-06-22T08:53:17;14.03;;;12.40;;
13607;SDS011;6875;50.852;5.672;2023-06-22T08:55:44;13.00;;;11.67;;
13607;SDS011;6875;50.852;5.672;2023-06-22T08:58:11;14.03;;;11.73;;
13607;SDS011;6875;50.852;5.672;2023-06-22T09:00:38;13.30;;;11.73;;
13607;SDS011;6875;50.852;5.672;2023-06-22T09:03:04;15.40;;;12.60;;
13607;SDS011;6875;50.852;5.672;2023-06-22T09:05:31;11.70;;;10.53;;
13607;SDS011;6875;50.852;5.672;2023-06-22T09:07:58;16.27;;;11.30;;
13607;SDS011;6875;50.852;5.672;2023-06-22T09:10:26;11.57;;;10.37;;
13607;SDS011;6875;50.852;5.672;2023-06-22T09:12:53;14.20;;;10.80;;
13607;SDS011;6875;50.852;5.672;2023-06-22T09:15:19;11.43;;;10.33;;
13607;SDS011;6875;50.852;5.672;2023-06-22T09:17:46;12.30;;;10.77;;
13607;SDS011;6875;50.852;5.672;2023-06-22T09:20:13;12.70;;;11.33;;
13607;SDS011;6875;50.852;5.672;2023-06-22T09:22:40;13.70;;;12.30;;
13607;SDS011;6875;50.852;5.672;2023-06-22T09:25:07;14.27;;;12.63;;
13607;SDS011;6875;50.852;5.672;2023-06-22T09:27:35;14.03;;;12.63;;
13607;SDS011;6875;50.852;5.672;2023-06-22T09:30:02;14.40;;;12.73;;
13607;SDS011;6875;50.852;5.672;2023-06-22T09:32:30;14.20;;;12.43;;
13607;SDS011;6875;50.852;5.672;2023-06-22T09:34:57;17.80;;;11.97;;
13607;SDS011;6875;50.852;5.672;2023-06-22T09:37:23;13.73;;;11.23;;
13607;SDS011;6875;50.852;5.672;2023-06-22T09:39:50;12.30;;;10.63;;
13607;SDS011;6875;50.852;5.672;2023-06-22T09:42:17;12.20;;;9.90;;
13607;SDS011;6875;50.852;5.672;2023-06-22T09:44:45;12.17;;;9.33;;
13607;SDS011;6875;50.852;5.672;2023-06-22T09:47:11;11.67;;;10.10;;
13607;SDS011;6875;50.852;5.672;2023-06-22T09:49:46;10.90;;;9.20;;
13607;SDS011;6875;50.852;5.672;2023-06-22T09:52:13;11.07;;;9.07;;
13607;SDS011;6875;50.852;5.672;2023-06-22T09:54:39;12.30;;;8.80;;
13607;SDS011;6875;50.852;5.672;2023-06-22T09:57:06;11.53;;;8.43;;
13607;SDS011;6875;50.852;5.672;2023-06-22T09:59:33;11.27;;;8.57;;
13607;SDS011;6875;50.852;5.672;2023-06-22T10:02:01;9.77;;;8.53;;
13607;SDS011;6875;50.852;5.672;2023-06-22T10:04:28;10.20;;;8.60;;
13607;SDS011;6875;50.852;5.672;2023-06-22T10:06:55;9.60;;;8.50;;
13607;SDS011;6875;50.852;5.672;2023-06-22T10:09:22;8.73;;;7.77;;
13607;SDS011;6875;50.852;5.672;2023-06-22T10:11:48;11.80;;;8.50;;
13607;SDS011;6875;50.852;5.672;2023-06-22T10:14:15;9.43;;;8.40;;
13607;SDS011;6875;50.852;5.672;2023-06-22T10:16:42;10.20;;;7.73;;
13607;SDS011;6875;50.852;5.672;2023-06-22T10:19:10;9.23;;;8.33;;
13607;SDS011;6875;50.852;5.672;2023-06-22T10:21:37;8.50;;;7.70;;
13607;SDS011;6875;50.852;5.672;2023-06-22T10:24:03;11.47;;;7.70;;
13607;SDS011;6875;50.852;5.672;2023-06-22T10:26:32;10.30;;;8.40;;
13607;SDS011;6875;50.852;5.672;2023-06-22T10:28:59;11.83;;;8.17;;
13607;SDS011;6875;50.852;5.672;2023-06-22T10:31:25;9.70;;;7.93;;
13607;SDS011;6875;50.852;5.672;2023-06-22T10:33:53;11.43;;;7.93;;
13607;SDS011;6875;50.852;5.672;2023-06-22T10:36:21;10.03;;;8.50;;
13607;SDS011;6875;50.852;5.672;2023-06-22T10:38:48;12.00;;;9.20;;
13607;SDS011;6875;50.852;5.672;2023-06-22T10:41:18;12.07;;;8.23;;
13607;SDS011;6875;50.852;5.672;2023-06-22T10:43:45;13.57;;;7.77;;
13607;SDS011;6875;50.852;5.672;2023-06-22T10:46:11;12.10;;;8.30;;
13607;SDS011;6875;50.852;5.672;2023-06-22T10:48:38;9.20;;;7.63;;
13607;SDS011;6875;50.852;5.672;2023-06-22T10:51:05;10.87;;;8.00;;
13607;SDS011;6875;50.852;5.672;2023-06-22T10:53:33;12.03;;;8.70;;
13607;SDS011;6875;50.852;5.672;2023-06-22T10:55:59;11.87;;;8.90;;
13607;SDS011;6875;50.852;5.672;2023-06-22T10:58:26;9.37;;;8.20;;
13607;SDS011;6875;50.852;5.672;2023-06-22T11:00:53;9.20;;;8.33;;
13607;SDS011;6875;50.852;5.672;2023-06-22T11:03:19;12.43;;;9.03;;
13607;SDS011;6875;50.852;5.672;2023-06-22T11:05:46;14.33;;;9.40;;
13607;SDS011;6875;50.852;5.672;2023-06-22T11:08:13;10.73;;;9.60;;
13607;SDS011;6875;50.852;5.672;2023-06-22T11:10:42;10.17;;;8.70;;
13607;SDS011;6875;50.852;5.672;2023-06-22T11:13:09;9.90;;;8.90;;
13607;SDS011;6875;50.852;5.672;2023-06-22T11:15:36;11.50;;;10.10;;
13607;SDS011;6875;50.852;5.672;2023-06-22T11:18:03;13.00;;;9.60;;
13607;SDS011;6875;50.852;5.672;2023-06-22T11:20:32;12.70;;;9.30;;
13607;SDS011;6875;50.852;5.672;2023-06-22T11:23:03;11.43;;;9.33;;
13607;SDS011;6875;50.852;5.672;2023-06-22T11:25:30;10.30;;;9.30;;
13607;SDS011;6875;50.852;5.672;2023-06-22T11:27:58;11.27;;;9.90;;
13607;SDS011;6875;50.852;5.672;2023-06-22T11:30:24;12.50;;;9.50;;
13607;SDS011;6875;50.852;5.672;2023-06-22T11:32:51;11.20;;;9.03;;
13607;SDS011;6875;50.852;5.672;2023-06-22T11:35:18;8.73;;;7.93;;
13607;SDS011;6875;50.852;5.672;2023-06-22T11:37:44;10.23;;;9.13;;
13607;SDS011;6875;50.852;5.672;2023-06-22T11:40:11;9.13;;;8.23;;
13607;SDS011;6875;50.852;5.672;2023-06-22T11:42:39;10.87;;;9.37;;
13607;SDS011;6875;50.852;5.672;2023-06-22T11:45:07;9.67;;;8.70;;
13607;SDS011;6875;50.852;5.672;2023-06-22T11:47:34;9.47;;;8.23;;
13607;SDS011;6875;50.852;5.672;2023-06-22T11:50:01;10.23;;;8.67;;
13607;SDS011;6875;50.852;5.672;2023-06-22T11:52:29;11.07;;;8.73;;
13607;SDS011;6875;50.852;5.672;2023-06-22T11:54:56;12.47;;;9.47;;
13607;SDS011;6875;50.852;5.672;2023-06-22T11:57:24;13.60;;;9.83;;
13607;SDS011;6875;50.852;5.672;2023-06-22T11:59:51;13.07;;;10.80;;
13607;SDS011;6875;50.852;5.672;2023-06-22T12:02:19;12.73;;;11.37;;
13607;SDS011;6875;50.852;5.672;2023-06-22T12:04:46;12.80;;;10.90;;
13607;SDS011;6875;50.852;5.672;2023-06-22T12:07:12;14.60;;;11.43;;
13607;SDS011;6875;50.852;5.672;2023-06-22T12:09:39;15.23;;;12.80;;
13607;SDS011;6875;50.852;5.672;2023-06-22T12:12:06;16.63;;;13.27;;
13607;SDS011;6875;50.852;5.672;2023-06-22T12:14:33;15.47;;;13.47;;
13607;SDS011;6875;50.852;5.672;2023-06-22T12:17:00;18.00;;;14.67;;
13607;SDS011;6875;50.852;5.672;2023-06-22T12:19:28;18.90;;;16.47;;
13607;SDS011;6875;50.852;5.672;2023-06-22T12:21:55;18.50;;;16.07;;
13607;SDS011;6875;50.852;5.672;2023-06-22T12:24:22;18.53;;;16.73;;
13607;SDS011;6875;50.852;5.672;2023-06-22T12:26:49;21.97;;;17.77;;
13607;SDS011;6875;50.852;5.672;2023-06-22T12:29:16;24.57;;;21.93;;
13607;SDS011;6875;50.852;5.672;2023-06-22T12:31:42;21.73;;;19.47;;
13607;SDS011;6875;50.852;5.672;2023-06-22T12:34:09;30.57;;;25.47;;
13607;SDS011;6875;50.852;5.672;2023-06-22T12:36:37;27.10;;;23.80;;
13607;SDS011;6875;50.852;5.672;2023-06-22T12:39:05;34.40;;;27.13;;
13607;SDS011;6875;50.852;5.672;2023-06-22T12:41:32;28.23;;;24.83;;
13607;SDS011;6875;50.852;5.672;2023-06-22T12:43:59;34.83;;;30.80;;
13607;SDS011;6875;50.852;5.672;2023-06-22T12:46:25;30.77;;;27.53;;
13607;SDS011;6875;50.852;5.672;2023-06-22T12:48:52;31.40;;;28.00;;
13607;SDS011;6875;50.852;5.672;2023-06-22T12:51:22;33.23;;;29.33;;
13607;SDS011;6875;50.852;5.672;2023-06-22T12:53:50;32.87;;;29.37;;
13607;SDS011;6875;50.852;5.672;2023-06-22T12:56:16;39.13;;;28.03;;
13607;SDS011;6875;50.852;5.672;2023-06-22T12:58:43;32.20;;;28.67;;
13607;SDS011;6875;50.852;5.672;2023-06-22T13:01:10;34.03;;;30.23;;
13607;SDS011;6875;50.852;5.672;2023-06-22T13:03:36;34.27;;;28.30;;
13607;SDS011;6875;50.852;5.672;2023-06-22T13:06:03;33.60;;;29.20;;
13607;SDS011;6875;50.852;5.672;2023-06-22T13:08:30;31.40;;;28.00;;
13607;SDS011;6875;50.852;5.672;2023-06-22T13:10:58;36.23;;;32.00;;
13607;SDS011;6875;50.852;5.672;2023-06-22T13:13:25;39.23;;;34.33;;
13607;SDS011;6875;50.852;5.672;2023-06-22T13:15:52;40.43;;;36.03;;
13607;SDS011;6875;50.852;5.672;2023-06-22T13:18:19;44.50;;;36.73;;
13607;SDS011;6875;50.852;5.672;2023-06-22T13:20:46;38.40;;;34.30;;
13607;SDS011;6875;50.852;5.672;2023-06-22T13:23:12;38.57;;;33.53;;
13607;SDS011;6875;50.852;5.672;2023-06-22T13:25:40;45.73;;;37.47;;
13607;SDS011;6875;50.852;5.672;2023-06-22T13:28:08;43.40;;;38.87;;
13607;SDS011;6875;50.852;5.672;2023-06-22T13:30:35;45.73;;;38.53;;
13607;SDS011;6875;50.852;5.672;2023-06-22T13:33:02;46.13;;;41.23;;
13607;SDS011;6875;50.852;5.672;2023-06-22T13:35:29;45.87;;;39.40;;
13607;SDS011;6875;50.852;5.672;2023-06-22T13:37:56;39.77;;;35.40;;
13607;SDS011;6875;50.852;5.672;2023-06-22T13:40:23;43.53;;;38.37;;
13607;SDS011;6875;50.852;5.672;2023-06-22T13:42:49;46.90;;;38.97;;
13607;SDS011;6875;50.852;5.672;2023-06-22T13:45:17;49.73;;;41.50;;
13607;SDS011;6875;50.852;5.672;2023-06-22T13:47:46;45.07;;;38.73;;
13607;SDS011;6875;50.852;5.672;2023-06-22T13:50:13;47.53;;;42.40;;
13607;SDS011;6875;50.852;5.672;2023-06-22T13:52:40;42.23;;;37.73;;
13607;SDS011;6875;50.852;5.672;2023-06-22T13:55:07;45.10;;;39.67;;
13607;SDS011;6875;50.852;5.672;2023-06-22T13:57:34;44.00;;;39.20;;
13607;SDS011;6875;50.852;5.672;2023-06-22T14:00:02;39.43;;;35.07;;
13607;SDS011;6875;50.852;5.672;2023-06-22T14:02:33;34.70;;;31.10;;
13607;SDS011;6875;50.852;5.672;2023-06-22T14:05:00;32.37;;;28.77;;
13607;SDS011;6875;50.852;5.672;2023-06-22T14:07:27;36.23;;;31.33;;
13607;SDS011;6875;50.852;5.672;2023-06-22T14:09:54;32.30;;;28.93;;
13607;SDS011;6875;50.852;5.672;2023-06-22T14:12:21;35.87;;;32.10;;
13607;SDS011;6875;50.852;5.672;2023-06-22T14:14:48;40.00;;;35.33;;
13607;SDS011;6875;50.852;5.672;2023-06-22T14:17:14;42.83;;;38.33;;
13607;SDS011;6875;50.852;5.672;2023-06-22T14:19:42;40.47;;;34.40;;
13607;SDS011;6875;50.852;5.672;2023-06-22T14:22:09;37.33;;;31.70;;
13607;SDS011;6875;50.852;5.672;2023-06-22T14:24:36;36.93;;;32.97;;
13607;SDS011;6875;50.852;5.672;2023-06-22T14:27:03;46.13;;;37.63;;
13607;SDS011;6875;50.852;5.672;2023-06-22T14:29:32;39.53;;;32.37;;
13607;SDS011;6875;50.852;5.672;2023-06-22T14:31:59;38.10;;;33.43;;
13607;SDS011;6875;50.852;5.672;2023-06-22T14:34:27;42.23;;;36.17;;
13607;SDS011;6875;50.852;5.672;2023-06-22T14:36:55;38.07;;;33.93;;
13607;SDS011;6875;50.852;5.672;2023-06-22T14:39:22;35.67;;;31.40;;
13607;SDS011;6875;50.852;5.672;2023-06-22T14:41:49;38.43;;;34.43;;